KRCR/RCR METAR and TAF weather

Enter ICAO airport designator
Station Type Date Time Source
KRCR METAR 2020/09/22 00:35 UTC NOAA

KRCR 220035Z AUTO 08003KT 7SM CLR 15/06 A3030 RMK AO2


Station Type Date Time Source
KRCR Decoded METAR 2020/09/22 00:35 UTC NOAA

Station name not available
Sep 21, 2020 - 08:35 PM EDT / 2020.09.22 0035 UTC
Wind: from the E (080 degrees) at 3 MPH (3 KT):0
Visibility: 7 mile(s):0
Sky conditions: clear
Temperature: 59 F (15 C)
Dew Point: 42 F (6 C)
Relative Humidity: 54%
Pressure (altimeter): 30.3 in. Hg (1026 hPa)
ob: KRCR 220035Z AUTO 08003KT 7SM CLR 15/06 A3030 RMK AO2
cycle: 0

Station Type Date Time Source
KRCR TAF UTC NOAA

Error!

Example: see airport list